createdAt,value
2022-09-15T00:00:01.060Z,11.88
2022-09-15T00:01:34.050Z,10.35
2022-09-15T00:03:06.044Z,12.38
2022-09-15T00:04:38.962Z,10.20
2022-09-15T00:06:13.522Z,9.00
2022-09-15T00:07:46.490Z,8.77
2022-09-15T00:09:19.506Z,9.32
2022-09-15T00:10:54.727Z,11.25
2022-09-15T00:12:28.641Z,11.70
2022-09-15T00:14:03.353Z,11.30
2022-09-15T00:15:35.797Z,8.90
2022-09-15T00:17:08.794Z,10.40
2022-09-15T00:18:42.669Z,8.73
2022-09-15T00:20:16.290Z,11.55
2022-09-15T00:21:50.519Z,9.13
2022-09-15T00:23:23.399Z,8.98
2022-09-15T00:24:56.248Z,10.10
2022-09-15T00:26:31.561Z,8.48
2022-09-15T00:28:04.435Z,8.43
2022-09-15T00:29:37.988Z,7.88
2022-09-15T00:31:12.742Z,10.10
2022-09-15T00:32:45.645Z,10.05
2022-09-15T00:34:18.530Z,9.48
2022-09-15T00:35:52.664Z,9.88
2022-09-15T00:37:27.335Z,10.45
2022-09-15T00:39:00.320Z,11.77
2022-09-15T00:40:32.328Z,9.38
2022-09-15T00:42:05.724Z,9.43
2022-09-15T00:43:50.506Z,8.88
2022-09-15T00:45:23.566Z,9.73
2022-09-15T00:47:15.599Z,10.85
2022-09-15T00:48:55.454Z,10.23
2022-09-15T00:50:28.448Z,11.35
2022-09-15T00:52:03.914Z,8.27
2022-09-15T00:53:38.869Z,9.90
2022-09-15T00:55:16.137Z,9.40
2022-09-15T00:56:52.703Z,13.13
2022-09-15T00:58:30.044Z,10.30
2022-09-15T01:00:07.638Z,10.93
2022-09-15T01:01:43.098Z,10.65
2022-09-15T01:03:17.500Z,10.70
2022-09-15T01:04:57.447Z,8.18
2022-09-15T01:06:35.297Z,10.52
2022-09-15T01:08:12.150Z,9.27
2022-09-15T01:09:50.880Z,9.85
2022-09-15T01:11:23.935Z,8.50
2022-09-15T01:12:59.369Z,9.93
2022-09-15T01:14:32.298Z,9.38
2022-09-15T01:16:13.811Z,10.25
2022-09-15T01:18:01.471Z,11.23
2022-09-15T01:20:10.759Z,9.90
2022-09-15T01:21:47.398Z,10.23
2022-09-15T01:23:42.003Z,10.85
2022-09-15T01:25:27.674Z,11.02
2022-09-15T01:27:24.411Z,8.98
2022-09-15T01:29:34.355Z,12.23
2022-09-15T01:31:16.723Z,8.20
2022-09-15T01:33:06.494Z,10.68
2022-09-15T01:34:44.892Z,9.07
2022-09-15T01:36:22.695Z,9.35
2022-09-15T01:38:02.207Z,10.35
2022-09-15T01:39:40.291Z,10.20
2022-09-15T01:41:17.725Z,11.75
2022-09-15T01:42:52.116Z,9.43
2022-09-15T01:44:29.016Z,10.35
2022-09-15T01:46:03.076Z,9.60
2022-09-15T01:47:38.223Z,9.27
2022-09-15T01:49:14.713Z,8.80
2022-09-15T01:50:52.166Z,9.10
2022-09-15T01:52:25.881Z,7.72
2022-09-15T01:54:03.350Z,7.90
2022-09-15T01:55:40.457Z,7.50
2022-09-15T01:57:13.417Z,9.00
2022-09-15T01:58:46.301Z,9.10
2022-09-15T02:00:18.494Z,8.07
2022-09-15T02:01:58.994Z,6.75
2022-09-15T02:03:43.042Z,8.68
2022-09-15T02:05:20.746Z,8.35
2022-09-15T02:06:58.731Z,8.80
2022-09-15T02:08:38.206Z,7.90
2022-09-15T02:10:16.353Z,7.80
2022-09-15T02:11:56.400Z,7.15
2022-09-15T02:13:39.256Z,6.72
2022-09-15T02:15:14.979Z,8.13
2022-09-15T02:16:50.866Z,7.95
2022-09-15T02:18:30.462Z,10.18
2022-09-15T02:20:12.129Z,8.15
2022-09-15T02:21:57.049Z,9.45
2022-09-15T02:23:35.427Z,9.43
2022-09-15T02:25:12.527Z,10.45
2022-09-15T02:26:48.046Z,8.25
2022-09-15T02:28:26.781Z,8.18
2022-09-15T02:30:09.059Z,8.57
2022-09-15T02:31:42.274Z,7.78
2022-09-15T02:34:54.503Z,7.82
2022-09-15T02:36:29.316Z,9.55
2022-09-15T02:38:04.237Z,7.95
2022-09-15T02:39:40.885Z,7.30
2022-09-15T02:41:14.180Z,9.05
2022-09-15T02:44:25.221Z,6.65
2022-09-15T02:45:58.454Z,8.52
2022-09-15T02:49:04.174Z,9.35
2022-09-15T02:50:37.378Z,9.70
2022-09-15T02:53:48.369Z,10.48
2022-09-15T02:55:21.432Z,7.80
2022-09-15T02:56:54.346Z,9.63
2022-09-15T02:58:27.207Z,10.02
2022-09-15T03:00:15.908Z,7.20
2022-09-15T03:01:48.928Z,7.65
2022-09-15T03:03:21.943Z,10.38
2022-09-15T03:04:55.214Z,9.55
2022-09-15T03:08:05.204Z,9.35
2022-09-15T03:09:38.390Z,10.70
2022-09-15T03:12:46.854Z,10.20
2022-09-15T03:14:20.217Z,11.07
2022-09-15T03:15:53.163Z,12.60
2022-09-15T03:17:26.334Z,10.82
2022-09-15T03:20:33.363Z,9.45
2022-09-15T03:22:06.879Z,9.43
2022-09-15T03:23:41.529Z,8.23
2022-09-15T03:25:14.613Z,9.68
2022-09-15T03:26:48.110Z,8.80
2022-09-15T03:28:20.062Z,11.98
2022-09-15T03:29:53.142Z,11.35
2022-09-15T03:31:26.152Z,12.90
2022-09-15T03:32:59.143Z,17.58
2022-09-15T03:34:32.287Z,9.32
2022-09-15T03:37:39.049Z,9.77
2022-09-15T03:40:56.616Z,9.02
2022-09-15T03:42:29.556Z,19.13
2022-09-15T03:44:02.781Z,14.02
2022-09-15T03:47:07.717Z,10.93
2022-09-15T03:48:41.625Z,7.88
2022-09-15T03:50:14.662Z,7.75
2022-09-15T03:51:47.648Z,9.88
2022-09-15T03:53:21.001Z,9.10
2022-09-15T03:54:55.609Z,7.25
2022-09-15T03:56:31.218Z,7.72
2022-09-15T03:58:03.276Z,7.07
2022-09-15T03:59:36.326Z,8.80
2022-09-15T04:01:09.417Z,6.72
2022-09-15T04:04:14.898Z,7.18
2022-09-15T04:05:47.792Z,6.35
2022-09-15T04:07:20.833Z,8.80
2022-09-15T04:08:54.147Z,6.72
2022-09-15T04:12:01.375Z,7.40
2022-09-15T04:13:33.512Z,6.32
2022-09-15T04:15:07.484Z,7.78
2022-09-15T04:16:39.469Z,24.98
2022-09-15T04:18:12.611Z,15.48
2022-09-15T04:19:45.588Z,9.70
2022-09-15T04:21:19.533Z,7.53
2022-09-15T04:22:52.489Z,7.68
2022-09-15T04:24:25.514Z,8.95
2022-09-15T04:26:01.549Z,6.78
2022-09-15T04:27:36.316Z,6.88
2022-09-15T04:29:15.742Z,6.00
2022-09-15T04:30:48.689Z,7.07
2022-09-15T04:32:22.028Z,7.43
2022-09-15T04:33:56.274Z,8.82
2022-09-15T04:35:29.316Z,9.13
2022-09-15T04:37:02.599Z,8.70
2022-09-15T04:38:36.305Z,6.95
2022-09-15T04:40:11.354Z,6.35
2022-09-15T04:41:45.745Z,7.78
2022-09-15T04:43:18.758Z,8.80
2022-09-15T04:44:51.889Z,6.80
2022-09-15T04:46:23.977Z,7.80
2022-09-15T04:47:56.930Z,16.77
2022-09-15T04:49:29.970Z,29.85
2022-09-15T04:51:03.883Z,7.97
2022-09-15T04:52:36.829Z,6.75
2022-09-15T04:54:09.916Z,7.60
2022-09-15T04:55:42.889Z,8.20
2022-09-15T04:57:17.290Z,6.20
2022-09-15T04:58:52.990Z,7.50
2022-09-15T05:00:26.919Z,7.15
2022-09-15T05:01:58.973Z,6.95
2022-09-15T05:03:31.906Z,8.00
2022-09-15T05:05:05.221Z,9.57
2022-09-15T05:08:10.896Z,8.27
2022-09-15T05:09:44.030Z,6.82
2022-09-15T05:11:17.398Z,7.85
2022-09-15T05:12:51.699Z,6.15
2022-09-15T05:14:24.764Z,7.82
2022-09-15T05:15:57.742Z,8.00
2022-09-15T05:17:32.507Z,8.02
2022-09-15T05:19:05.766Z,8.77
2022-09-15T05:22:10.404Z,6.05
2022-09-15T05:23:43.477Z,7.72
2022-09-15T05:25:16.483Z,8.30
2022-09-15T05:26:49.477Z,6.70
2022-09-15T05:28:24.482Z,10.88
2022-09-15T05:30:23.632Z,10.32
2022-09-15T05:31:50.830Z,8.63
2022-09-15T05:33:24.781Z,11.18
2022-09-15T05:34:57.996Z,8.52
2022-09-15T05:38:04.100Z,6.75
2022-09-15T05:41:17.556Z,7.32
2022-09-15T05:42:50.538Z,8.63
2022-09-15T05:44:24.862Z,8.10
2022-09-15T05:45:56.812Z,7.20
2022-09-15T05:47:30.161Z,7.75
2022-09-15T05:49:03.186Z,7.80
2022-09-15T05:50:35.534Z,9.20
2022-09-15T05:52:08.434Z,9.00
2022-09-15T05:53:41.722Z,8.13
2022-09-15T05:55:14.848Z,10.30
2022-09-15T05:56:47.876Z,8.52
2022-09-15T05:58:19.779Z,9.05
2022-09-15T05:59:54.092Z,9.43
2022-09-15T06:01:28.638Z,8.00
2022-09-15T06:03:01.885Z,6.75
2022-09-15T06:06:08.198Z,7.50
2022-09-15T06:09:14.099Z,8.57
2022-09-15T06:10:47.404Z,8.48
2022-09-15T06:12:20.437Z,8.48
2022-09-15T06:13:53.792Z,8.07
2022-09-15T06:15:28.278Z,8.23
2022-09-15T06:17:01.187Z,7.65
2022-09-15T06:18:36.002Z,7.88
2022-09-15T06:20:10.055Z,7.57
2022-09-15T06:21:43.047Z,7.35
2022-09-15T06:23:15.370Z,7.72
2022-09-15T06:24:48.433Z,12.10
2022-09-15T06:26:21.515Z,16.00
2022-09-15T06:27:54.786Z,13.13
2022-09-15T06:31:03.595Z,10.27
2022-09-15T06:32:47.421Z,14.60
2022-09-15T06:34:21.693Z,10.07
2022-09-15T06:35:54.987Z,11.45
2022-09-15T06:37:27.959Z,8.52
2022-09-15T06:39:01.120Z,10.85
2022-09-15T06:42:06.462Z,10.50
2022-09-15T06:43:39.822Z,8.00
2022-09-15T06:45:12.971Z,7.28
2022-09-15T06:46:47.195Z,8.88
2022-09-15T06:48:24.837Z,7.63
2022-09-15T06:49:59.659Z,9.63
2022-09-15T06:51:35.420Z,9.85
2022-09-15T06:53:07.381Z,9.57
2022-09-15T06:54:40.443Z,7.82
2022-09-15T06:56:16.085Z,9.20
2022-09-15T06:57:50.859Z,6.82
2022-09-15T06:59:24.566Z,8.98
2022-09-15T07:01:04.756Z,8.02
2022-09-15T07:02:39.352Z,7.60
2022-09-15T07:04:12.585Z,9.40
2022-09-15T07:07:19.280Z,6.32
2022-09-15T07:08:55.186Z,10.63
2022-09-15T07:10:28.391Z,9.73
2022-09-15T07:13:34.150Z,8.68
2022-09-15T07:15:08.506Z,5.80
2022-09-15T07:16:41.479Z,5.80
2022-09-15T07:18:15.857Z,2.42
2022-09-15T07:19:48.828Z,1.80
2022-09-15T07:21:22.220Z,1.85
2022-09-15T07:22:54.317Z,1.83
2022-09-15T07:24:27.362Z,2.38
2022-09-15T07:26:07.630Z,4.68
2022-09-15T07:27:40.580Z,1.75
2022-09-15T07:29:13.850Z,1.70
2022-09-15T07:32:24.664Z,2.45
2022-09-15T07:34:02.946Z,2.03
2022-09-15T07:35:36.460Z,3.47
2022-09-15T07:37:09.351Z,1.98
2022-09-15T07:38:44.429Z,1.95
2022-09-15T07:40:17.458Z,1.75
2022-09-15T07:41:50.407Z,1.90
2022-09-15T07:43:23.382Z,2.05
2022-09-15T07:44:56.186Z,1.83
2022-09-15T07:46:32.226Z,1.65
2022-09-15T07:48:06.347Z,3.42
2022-09-15T07:49:40.608Z,2.65
2022-09-15T07:51:13.986Z,2.70
2022-09-15T07:52:47.006Z,2.55
2022-09-15T07:54:22.869Z,2.40
2022-09-15T07:55:56.907Z,1.83
2022-09-15T07:57:29.833Z,2.83
2022-09-15T07:59:03.134Z,1.52
2022-09-15T08:02:10.934Z,1.65
2022-09-15T08:03:46.327Z,1.85
2022-09-15T08:05:20.886Z,0.60
2022-09-15T08:06:55.444Z,2.45
2022-09-15T08:08:29.015Z,1.52
2022-09-15T08:10:02.143Z,1.70
2022-09-15T08:11:35.177Z,1.40
2022-09-15T08:13:07.132Z,2.63
2022-09-15T08:14:40.104Z,1.80
2022-09-15T08:16:15.011Z,1.83
2022-09-15T08:17:47.185Z,1.52
2022-09-15T08:19:20.781Z,2.08
2022-09-15T08:20:55.493Z,4.82
2022-09-15T08:22:28.596Z,5.03
2022-09-15T08:24:05.315Z,4.28
2022-09-15T08:25:39.171Z,3.47
2022-09-15T08:27:12.134Z,3.42
2022-09-15T08:28:45.265Z,4.03
2022-09-15T08:31:51.794Z,2.47
2022-09-15T08:34:58.164Z,2.33
2022-09-15T08:36:32.631Z,1.25
2022-09-15T08:38:06.558Z,1.48
2022-09-15T08:39:39.786Z,1.00
2022-09-15T08:42:49.139Z,2.58
2022-09-15T08:44:36.020Z,1.65
2022-09-15T08:46:15.389Z,1.05
2022-09-15T08:47:51.483Z,1.77
2022-09-15T08:49:47.836Z,2.40
2022-09-15T08:51:28.637Z,1.92
2022-09-15T08:53:06.883Z,2.42
2022-09-15T08:54:40.501Z,1.00
2022-09-15T08:56:18.037Z,2.22
2022-09-15T08:57:53.877Z,1.10
2022-09-15T08:59:32.675Z,2.03
2022-09-15T09:01:17.119Z,1.33
2022-09-15T09:03:24.006Z,1.45
2022-09-15T09:05:05.291Z,2.58
2022-09-15T09:06:47.133Z,1.33
2022-09-15T09:08:46.313Z,3.10
2022-09-15T09:10:30.274Z,2.13
2022-09-15T09:12:44.898Z,2.75
2022-09-15T09:14:26.339Z,4.88
2022-09-15T09:27:58.285Z,3.78
2022-09-15T09:29:35.723Z,1.80
2022-09-15T09:31:18.641Z,3.17
2022-09-15T09:32:58.582Z,2.65
2022-09-15T09:34:39.335Z,2.58
2022-09-15T09:36:13.259Z,2.28
2022-09-15T09:37:46.578Z,2.88
2022-09-15T09:39:19.600Z,2.25
2022-09-15T09:40:52.927Z,2.50
2022-09-15T09:42:29.952Z,2.78
2022-09-15T09:44:07.490Z,3.05
2022-09-15T09:45:40.478Z,3.15
2022-09-15T09:47:13.610Z,3.17
2022-09-15T09:50:38.682Z,4.45
2022-09-15T09:52:13.022Z,4.00
2022-09-15T09:53:54.372Z,3.70
2022-09-15T09:55:28.957Z,3.03
2022-09-15T09:57:23.399Z,3.60
2022-09-15T09:58:56.675Z,3.53
2022-09-15T10:02:15.755Z,3.35
2022-09-15T10:03:48.811Z,1.25
2022-09-15T10:05:21.960Z,1.90
2022-09-15T10:06:57.411Z,1.70
2022-09-15T10:08:30.813Z,2.35
2022-09-15T10:10:04.483Z,1.27
2022-09-15T10:11:43.016Z,3.28
2022-09-15T10:13:15.937Z,2.97
2022-09-15T10:14:53.309Z,1.83
2022-09-15T10:16:27.779Z,2.38
2022-09-15T10:18:02.253Z,3.40
2022-09-15T10:19:45.124Z,2.80
2022-09-15T10:21:23.464Z,2.03
2022-09-15T10:23:04.867Z,4.28
2022-09-15T10:24:40.799Z,2.40
2022-09-15T10:26:22.099Z,2.63
2022-09-15T10:28:04.553Z,1.73
2022-09-15T10:29:40.892Z,1.48
2022-09-15T10:31:26.617Z,2.00
2022-09-15T10:33:20.251Z,3.15
2022-09-15T10:35:05.210Z,2.08
2022-09-15T10:36:38.753Z,3.88
2022-09-15T10:38:15.763Z,5.47
2022-09-15T10:39:55.240Z,2.10
2022-09-15T10:41:31.040Z,1.50
2022-09-15T10:43:26.250Z,4.10
2022-09-15T10:45:10.975Z,1.63
2022-09-15T10:46:56.339Z,4.50
2022-09-15T10:48:49.428Z,2.00
2022-09-15T10:50:28.600Z,3.63
2022-09-15T10:52:13.684Z,3.28
2022-09-15T10:54:15.081Z,4.22
2022-09-15T10:55:56.081Z,3.15
2022-09-15T10:57:44.162Z,4.35
2022-09-15T10:59:43.103Z,3.53
2022-09-15T11:01:36.002Z,3.72
2022-09-15T11:03:41.129Z,4.13
2022-09-15T11:05:28.553Z,4.22
2022-09-15T11:07:06.507Z,4.93
2022-09-15T11:09:02.738Z,4.85
2022-09-15T11:10:44.182Z,4.85
2022-09-15T11:12:38.607Z,5.50
2022-09-15T11:14:27.589Z,6.35
2022-09-15T11:16:10.046Z,5.90
2022-09-15T11:17:54.302Z,5.38
2022-09-15T11:19:42.282Z,6.65
2022-09-15T11:21:30.771Z,6.93
2022-09-15T11:23:11.357Z,7.25
2022-09-15T11:24:47.958Z,7.32
2022-09-15T11:26:25.107Z,6.00
2022-09-15T11:28:03.885Z,6.50
2022-09-15T11:29:50.756Z,8.50
2022-09-15T11:31:27.237Z,6.40
2022-09-15T11:33:04.305Z,5.57
2022-09-15T11:34:44.538Z,6.93
2022-09-15T11:36:21.653Z,7.80
2022-09-15T11:38:00.476Z,5.65
2022-09-15T11:39:39.996Z,7.07
2022-09-15T11:41:27.143Z,5.30
2022-09-15T11:43:07.141Z,7.25
2022-09-15T11:44:42.127Z,6.80
2022-09-15T11:46:20.440Z,7.82
2022-09-15T11:47:57.955Z,5.63
2022-09-15T11:49:36.889Z,7.75
2022-09-15T11:51:12.782Z,7.50
2022-09-15T11:52:54.264Z,8.20
2022-09-15T11:54:36.993Z,8.40
2022-09-15T11:56:19.564Z,7.38
2022-09-15T11:58:00.527Z,8.23
2022-09-15T11:59:42.870Z,5.45
2022-09-15T12:01:19.704Z,6.15
2022-09-15T12:02:57.726Z,7.07
2022-09-15T12:04:36.351Z,7.57
2022-09-15T12:06:15.384Z,8.45
2022-09-15T12:07:54.030Z,6.95
2022-09-15T12:09:29.185Z,7.25
2022-09-15T12:11:07.338Z,6.55
2022-09-15T12:12:42.529Z,8.90
2022-09-15T12:14:20.280Z,7.47
2022-09-15T12:15:54.035Z,6.93
2022-09-15T12:17:34.429Z,6.22
2022-09-15T12:19:17.142Z,5.68
2022-09-15T12:20:55.227Z,4.20
2022-09-15T12:22:35.384Z,5.30
2022-09-15T12:24:16.240Z,6.55
2022-09-15T12:26:05.113Z,6.00
2022-09-15T12:27:38.131Z,6.72
2022-09-15T12:29:42.275Z,7.88
2022-09-15T12:32:57.972Z,6.13
2022-09-15T12:34:39.367Z,6.10
2022-09-15T12:36:44.969Z,5.38
2022-09-15T12:38:22.301Z,6.45
2022-09-15T12:39:55.309Z,5.93
2022-09-15T12:41:30.589Z,6.20
2022-09-15T12:43:05.045Z,7.60
2022-09-15T12:44:43.183Z,6.35
2022-09-15T12:46:19.504Z,9.02
2022-09-15T12:47:55.644Z,8.55
2022-09-15T12:49:33.639Z,9.50
2022-09-15T12:51:10.723Z,7.35
2022-09-15T12:52:50.336Z,7.95
2022-09-15T12:56:26.604Z,9.07
2022-09-15T12:58:02.217Z,6.85
2022-09-15T12:59:35.469Z,8.40
2022-09-15T13:03:03.253Z,7.95
2022-09-15T13:04:53.239Z,9.98
2022-09-15T13:06:27.514Z,6.68
2022-09-15T13:08:00.602Z,8.35
2022-09-15T13:09:45.194Z,11.23
2022-09-15T13:11:25.404Z,7.75
2022-09-15T13:13:19.337Z,8.25
2022-09-15T13:14:55.971Z,9.30
2022-09-15T13:16:34.317Z,10.43
2022-09-15T13:18:07.913Z,11.32
2022-09-15T13:19:46.493Z,7.55
2022-09-15T13:21:23.970Z,10.23
2022-09-15T13:22:57.331Z,9.40
2022-09-15T13:24:47.169Z,11.75
2022-09-15T13:26:27.392Z,9.82
2022-09-15T13:28:02.746Z,11.25
2022-09-15T13:29:41.225Z,11.75
2022-09-15T13:31:29.756Z,10.23
2022-09-15T13:33:11.721Z,12.27
2022-09-15T13:35:21.021Z,9.60
2022-09-15T13:39:21.269Z,10.50
2022-09-15T13:41:19.198Z,13.20
2022-09-15T13:43:08.663Z,10.32
2022-09-15T13:45:20.021Z,8.40
2022-09-15T13:47:07.693Z,10.40
2022-09-15T13:48:49.674Z,8.93
2022-09-15T13:50:25.732Z,6.57
2022-09-15T13:52:02.682Z,7.22
2022-09-15T13:53:45.361Z,6.70
2022-09-15T13:55:25.472Z,8.93
2022-09-15T13:57:02.333Z,5.15
2022-09-15T14:00:33.657Z,7.65
2022-09-15T14:02:09.698Z,6.00
2022-09-15T14:03:47.356Z,7.97
2022-09-15T14:05:21.529Z,6.07
2022-09-15T14:07:00.038Z,5.32
2022-09-15T14:08:35.162Z,5.20
2022-09-15T14:10:18.554Z,7.32
2022-09-15T14:11:55.235Z,6.50
2022-09-15T14:13:29.798Z,5.13
2022-09-15T14:15:08.064Z,6.93
2022-09-15T14:16:49.814Z,5.15
2022-09-15T14:18:22.846Z,7.05
2022-09-15T14:19:57.360Z,5.63
2022-09-15T14:21:33.085Z,6.20
2022-09-15T14:23:17.203Z,5.15
2022-09-15T14:24:51.894Z,5.43
2022-09-15T14:26:28.017Z,7.18
2022-09-15T14:28:00.936Z,5.70
2022-09-15T14:29:33.917Z,6.88
2022-09-15T14:31:08.466Z,4.95
2022-09-15T14:32:47.517Z,4.47
2022-09-15T14:34:23.983Z,6.10
2022-09-15T14:35:57.081Z,5.80
2022-09-15T14:37:32.013Z,4.88
2022-09-15T14:39:19.430Z,5.93
2022-09-15T14:40:53.505Z,5.13
2022-09-15T14:42:30.681Z,5.03
2022-09-15T14:44:04.582Z,6.30
2022-09-15T14:47:35.238Z,6.57
2022-09-15T14:49:11.134Z,7.40
2022-09-15T14:50:46.120Z,6.45
2022-09-15T14:52:25.580Z,7.00
2022-09-15T14:54:01.099Z,9.20
2022-09-15T14:55:39.074Z,8.55
2022-09-15T14:58:57.328Z,7.13
2022-09-15T15:00:35.129Z,7.18
2022-09-15T15:02:22.338Z,6.93
2022-09-15T15:04:09.997Z,8.30
2022-09-15T15:05:46.284Z,6.38
2022-09-15T15:07:23.366Z,8.63
2022-09-15T15:09:03.091Z,6.68
2022-09-15T15:10:37.525Z,9.38
2022-09-15T15:12:19.221Z,11.00
2022-09-15T15:13:53.482Z,7.72
2022-09-15T15:15:26.915Z,8.80
2022-09-15T15:18:40.230Z,7.97
2022-09-15T15:20:18.360Z,10.30
2022-09-15T15:21:51.340Z,7.65
2022-09-15T15:23:25.505Z,10.32
2022-09-15T15:24:58.764Z,9.30
2022-09-15T15:28:29.063Z,8.55
2022-09-15T15:30:26.711Z,8.05
2022-09-15T15:32:06.271Z,9.75
2022-09-15T15:33:47.997Z,7.90
2022-09-15T15:35:22.790Z,8.75
2022-09-15T15:37:04.196Z,8.18
2022-09-15T15:38:46.365Z,7.57
2022-09-15T15:40:23.146Z,8.52
2022-09-15T15:42:03.294Z,6.13
2022-09-15T15:43:36.521Z,6.55
2022-09-15T15:46:56.705Z,6.93
2022-09-15T15:48:36.884Z,6.32
2022-09-15T15:50:14.479Z,7.18
2022-09-15T15:51:50.168Z,7.93
2022-09-15T15:53:23.227Z,8.23
2022-09-15T15:54:56.230Z,8.95
2022-09-15T15:56:29.435Z,6.70
2022-09-15T15:59:35.219Z,9.10
2022-09-15T16:01:13.445Z,8.60
2022-09-15T16:02:46.652Z,6.50
2022-09-15T16:04:19.860Z,7.28
2022-09-15T16:07:33.162Z,10.30
2022-09-15T16:09:07.075Z,7.57
2022-09-15T16:10:42.748Z,11.07
2022-09-15T16:12:16.496Z,9.00
2022-09-15T16:13:51.582Z,6.25
2022-09-15T16:15:24.630Z,6.63
2022-09-15T16:17:00.406Z,7.30
2022-09-15T16:18:33.311Z,8.02
2022-09-15T16:20:07.250Z,6.22
2022-09-15T16:21:42.626Z,6.65
2022-09-15T16:23:19.181Z,7.57
2022-09-15T16:24:52.167Z,14.00
2022-09-15T16:26:26.043Z,8.30
2022-09-15T16:28:00.660Z,6.15
2022-09-15T16:29:36.270Z,6.55
2022-09-15T16:31:13.171Z,5.65
2022-09-15T16:32:46.272Z,7.25
2022-09-15T16:34:19.495Z,7.30
2022-09-15T16:37:28.203Z,9.43
2022-09-15T16:39:02.840Z,9.82
2022-09-15T16:40:36.905Z,8.68
2022-09-15T16:42:10.731Z,7.78
2022-09-15T16:43:44.246Z,6.95
2022-09-15T16:45:24.419Z,10.40
2022-09-15T16:46:57.486Z,8.73
2022-09-15T16:48:30.543Z,8.18
2022-09-15T16:50:03.604Z,6.60
2022-09-15T16:51:36.755Z,10.35
2022-09-15T16:53:13.747Z,10.05
2022-09-15T16:54:48.087Z,9.60
2022-09-15T16:56:21.122Z,9.07
2022-09-15T16:57:53.172Z,9.20
2022-09-15T16:59:26.221Z,9.95
2022-09-15T17:00:59.489Z,8.13
2022-09-15T17:04:09.800Z,11.05
2022-09-15T17:05:48.516Z,9.80
2022-09-15T17:07:21.917Z,8.65
2022-09-15T17:08:55.671Z,10.90
2022-09-15T17:10:30.141Z,6.70
2022-09-15T17:12:04.607Z,9.13
2022-09-15T17:13:37.651Z,11.60
2022-09-15T17:15:23.969Z,10.52
2022-09-15T17:16:57.000Z,10.70
2022-09-15T17:18:30.272Z,10.85
2022-09-15T17:21:36.299Z,9.73
2022-09-15T17:23:19.472Z,9.95
2022-09-15T17:24:52.447Z,12.52
2022-09-15T17:26:31.277Z,8.15
2022-09-15T17:28:04.528Z,7.97
2022-09-15T17:29:37.451Z,9.88
2022-09-15T17:31:15.534Z,11.40
2022-09-15T17:32:48.049Z,10.10
2022-09-15T17:34:21.055Z,11.15
2022-09-15T17:35:54.324Z,10.23
2022-09-15T17:38:59.114Z,10.55
2022-09-15T17:40:32.501Z,8.25
2022-09-15T17:42:07.746Z,8.43
2022-09-15T17:43:40.973Z,10.60
2022-09-15T17:45:20.210Z,10.93
2022-09-15T17:46:53.233Z,9.68
2022-09-15T17:48:26.350Z,10.73
2022-09-15T17:49:58.271Z,9.13
2022-09-15T17:51:31.314Z,9.07
2022-09-15T17:53:07.671Z,8.23
2022-09-15T17:54:43.732Z,9.13
2022-09-15T17:56:17.015Z,12.15
2022-09-15T18:00:57.256Z,9.02
2022-09-15T18:02:29.451Z,9.43
2022-09-15T18:04:03.080Z,9.50
2022-09-15T18:05:37.454Z,9.95
2022-09-15T18:07:11.221Z,11.70
2022-09-15T18:08:44.236Z,13.93
2022-09-15T18:10:18.580Z,10.20
2022-09-15T18:11:51.605Z,10.10
2022-09-15T18:13:27.558Z,11.27
2022-09-15T18:15:00.563Z,11.02
2022-09-15T18:16:33.522Z,12.32
2022-09-15T18:18:08.666Z,14.20
2022-09-15T18:19:42.222Z,12.18
2022-09-15T18:21:24.517Z,15.30
2022-09-15T18:22:59.939Z,12.48
2022-09-15T18:24:32.938Z,10.52
2022-09-15T18:26:05.926Z,12.70
2022-09-15T18:27:38.835Z,12.85
2022-09-15T18:29:13.225Z,13.32
2022-09-15T18:30:48.358Z,12.93
2022-09-15T18:32:21.478Z,12.40
2022-09-15T18:33:54.540Z,12.27
2022-09-15T18:35:28.125Z,12.10
2022-09-15T18:37:01.155Z,11.95
2022-09-15T18:38:34.263Z,10.93
2022-09-15T18:40:09.534Z,11.52
2022-09-15T18:41:42.698Z,9.90
2022-09-15T18:43:15.669Z,11.23
2022-09-15T18:44:51.986Z,9.70
2022-09-15T18:46:25.138Z,12.23
2022-09-15T18:47:58.162Z,9.15
2022-09-15T18:49:31.104Z,8.38
2022-09-15T18:51:08.915Z,9.90
2022-09-15T18:52:43.130Z,9.18
2022-09-15T18:54:16.093Z,8.65
2022-09-15T18:55:49.100Z,8.48
2022-09-15T18:57:22.315Z,8.85
2022-09-15T19:00:31.488Z,11.75
2022-09-15T19:02:04.738Z,10.98
2022-09-15T19:05:17.937Z,9.52
2022-09-15T19:06:51.831Z,9.77
2022-09-15T19:08:24.765Z,11.85
2022-09-15T19:09:57.842Z,10.00
2022-09-15T19:11:30.894Z,11.52
2022-09-15T19:13:04.855Z,13.35
2022-09-15T19:14:38.104Z,14.07
2022-09-15T19:16:12.515Z,12.20
2022-09-15T19:17:45.676Z,12.10
2022-09-15T19:19:19.569Z,12.27
2022-09-15T19:20:53.093Z,9.93
2022-09-15T19:22:26.539Z,9.63
2022-09-15T19:24:00.324Z,12.77
2022-09-15T19:25:34.021Z,11.55
2022-09-15T19:27:08.805Z,14.70
2022-09-15T19:28:42.104Z,12.95
2022-09-15T19:31:49.409Z,12.98
2022-09-15T19:33:22.387Z,11.70
2022-09-15T19:34:55.432Z,12.32
2022-09-15T19:36:29.289Z,9.63
2022-09-15T19:38:02.496Z,9.65
2022-09-15T19:39:35.617Z,10.15
2022-09-15T19:41:11.171Z,10.13
2022-09-15T19:42:45.447Z,8.57
2022-09-15T19:44:18.839Z,9.73
2022-09-15T19:45:52.006Z,9.88
2022-09-15T19:47:26.415Z,11.32
2022-09-15T19:48:59.956Z,11.98
2022-09-15T19:50:32.838Z,11.23
2022-09-15T19:52:06.493Z,10.88
2022-09-15T19:53:39.541Z,9.35
2022-09-15T19:55:13.317Z,10.13
2022-09-15T19:56:46.227Z,9.48
2022-09-15T19:58:19.601Z,10.32
2022-09-15T19:59:52.556Z,9.57
2022-09-15T20:01:26.761Z,9.57
2022-09-15T20:03:01.313Z,9.18
2022-09-15T20:04:34.361Z,11.05
2022-09-15T20:06:09.349Z,9.02
2022-09-15T20:07:42.375Z,10.07
2022-09-15T20:09:17.660Z,10.10
2022-09-15T20:10:50.650Z,10.05
2022-09-15T20:12:23.614Z,10.57
2022-09-15T20:13:57.244Z,11.02
2022-09-15T20:15:30.171Z,10.88
2022-09-15T20:17:03.137Z,11.80
2022-09-15T20:18:41.172Z,10.48
2022-09-15T20:20:14.132Z,11.05
2022-09-15T20:21:51.080Z,10.80
2022-09-15T20:23:25.049Z,11.82
2022-09-15T20:24:58.123Z,11.40
2022-09-15T20:26:31.728Z,12.02
2022-09-15T20:28:04.795Z,10.07
2022-09-15T20:29:37.802Z,9.10
2022-09-15T20:31:13.666Z,10.95
2022-09-15T20:32:47.838Z,11.25
2022-09-15T20:34:22.122Z,11.10
2022-09-15T20:35:55.120Z,11.88
2022-09-15T20:37:28.067Z,10.73
2022-09-15T20:39:03.295Z,12.60
2022-09-15T20:40:36.156Z,11.13
2022-09-15T20:42:09.071Z,11.98
2022-09-15T20:43:43.485Z,14.50
2022-09-15T20:45:16.481Z,11.23
2022-09-15T20:46:49.412Z,14.73
2022-09-15T20:48:22.363Z,13.07
2022-09-15T20:49:56.709Z,11.90
2022-09-15T20:51:31.747Z,11.45
2022-09-15T20:53:04.754Z,10.70
2022-09-15T20:54:37.699Z,10.90
2022-09-15T20:56:13.357Z,11.68
2022-09-15T20:57:59.544Z,8.93
2022-09-15T20:59:32.465Z,9.60
2022-09-15T21:01:07.732Z,12.02
2022-09-15T21:02:40.823Z,10.82
2022-09-15T21:04:13.834Z,11.52
2022-09-15T21:05:49.173Z,12.23
2022-09-15T21:07:22.145Z,12.63
2022-09-15T21:08:56.589Z,11.90
2022-09-15T21:10:30.314Z,12.98
2022-09-15T21:12:03.695Z,14.20
2022-09-15T21:13:37.553Z,9.85
2022-09-15T21:15:11.414Z,10.80
2022-09-15T21:16:44.645Z,10.68
2022-09-15T21:19:50.461Z,10.90
2022-09-15T21:21:26.233Z,11.32
2022-09-15T21:22:59.185Z,11.55
2022-09-15T21:24:32.101Z,10.82
2022-09-15T21:26:06.675Z,12.23
2022-09-15T21:27:39.711Z,10.80
2022-09-15T21:29:12.710Z,10.82
2022-09-15T21:30:45.966Z,10.35
2022-09-15T21:32:19.556Z,10.95
2022-09-15T21:33:53.878Z,9.13
2022-09-15T21:35:26.739Z,11.65
2022-09-15T21:37:01.182Z,13.30
2022-09-15T21:38:34.318Z,13.75
2022-09-15T21:40:08.445Z,12.07
2022-09-15T21:41:41.465Z,12.30
2022-09-15T21:43:13.510Z,11.98
2022-09-15T21:44:49.302Z,11.07
2022-09-15T21:46:24.579Z,11.52
2022-09-15T21:47:57.657Z,13.20
2022-09-15T21:49:31.336Z,12.40
2022-09-15T21:51:05.144Z,13.65
2022-09-15T21:52:39.477Z,12.25
2022-09-15T21:54:12.337Z,12.77
2022-09-15T21:55:45.385Z,12.70
2022-09-15T21:57:18.407Z,12.68
2022-09-15T21:58:50.675Z,12.02
2022-09-15T22:00:23.882Z,12.95
2022-09-15T22:01:58.231Z,13.13
2022-09-15T22:03:31.485Z,13.88
2022-09-15T22:05:04.515Z,9.70
2022-09-15T22:06:40.164Z,12.45
2022-09-15T22:08:16.600Z,15.68
2022-09-15T22:09:49.526Z,10.07
2022-09-15T22:11:22.604Z,13.48
2022-09-15T22:12:55.493Z,14.27
2022-09-15T22:14:28.374Z,10.55
2022-09-15T22:16:02.925Z,12.63
2022-09-15T22:17:35.851Z,10.48
2022-09-15T22:19:11.019Z,12.85
2022-09-15T22:20:45.338Z,10.30
2022-09-15T22:22:18.504Z,11.52
2022-09-15T22:23:54.965Z,13.60
2022-09-15T22:25:28.929Z,9.57
2022-09-15T22:27:01.833Z,12.65
2022-09-15T22:28:34.292Z,11.60
2022-09-15T22:30:08.540Z,13.35
2022-09-15T22:31:41.975Z,11.25
2022-09-15T22:33:14.173Z,12.13
2022-09-15T22:34:47.221Z,11.45
2022-09-15T22:36:25.246Z,11.48
2022-09-15T22:38:01.664Z,11.55
2022-09-15T22:39:58.110Z,11.27
2022-09-15T22:43:01.613Z,11.65
2022-09-15T22:44:34.498Z,12.80
2022-09-15T22:46:07.595Z,12.15